Time;durP1;ratioP1;P1;durP2;ratioP2;P2;SDS_P1;SDS_P2;PMS_P1;PMS_P2;Temp;Humidity;BMP_temperature;BMP_pressure;BME280_temperature;BME280_humidity;BME280_pressure;Samples;Min_cycle;Max_cycle;Signal;HPM_P1;HPM_P2
2023/04/30 00:00:21;;;;;;;;;;;7.90;99.90;;;;;;5116090;28;20072;-74
2023/04/30 00:02:48;;;;;;;;;;;7.80;99.90;;;;;;5092439;28;20447;-74
2023/04/30 00:05:14;;;;;;;;;;;7.80;99.90;;;;;;5097151;28;19967;-74
2023/04/30 00:07:41;;;;;;;;;;;7.80;99.90;;;;;;5114850;28;19931;-74
2023/04/30 00:10:09;;;;;;;;;;;7.70;99.90;;;;;;5109674;28;19924;-75
2023/04/30 00:12:35;;;;;;;;;;;7.60;99.90;;;;;;5113341;28;19928;-75
2023/04/30 00:15:01;;;;;;;;;;;7.60;99.90;;;;;;5114175;28;20503;-73
2023/04/30 00:17:26;;;;;;;;;;;7.60;99.90;;;;;;5097038;28;19927;-73
2023/04/30 00:19:52;;;;;;;;;;;7.60;99.90;;;;;;5114691;28;19978;-73
2023/04/30 00:22:18;;;;;;;;;;;7.50;99.90;;;;;;5115083;28;19967;-73
2023/04/30 00:24:43;;;;;;;;;;;7.70;99.90;;;;;;5090740;28;20391;-73
2023/04/30 00:27:09;;;;;;;;;;;7.40;99.90;;;;;;5113639;28;19927;-73
2023/04/30 00:29:34;;;;;;;;;;;7.60;99.90;;;;;;5095347;28;20458;-73
2023/04/30 00:32:00;;;;;;;;;;;7.40;99.90;;;;;;5114962;28;20424;-74
2023/04/30 00:34:25;;;;;;;;;;;7.40;99.90;;;;;;5096768;28;19931;-74
2023/04/30 00:36:51;;;;;;;;;;;7.30;99.90;;;;;;5095625;28;19963;-74
2023/04/30 00:39:17;;;;;;;;;;;7.60;99.90;;;;;;5114422;28;19924;-74
2023/04/30 00:41:42;;;;;;;;;;;7.40;99.90;;;;;;5113982;28;19919;-74
2023/04/30 00:44:08;;;;;;;;;;;7.40;99.90;;;;;;5095915;28;20018;-74
2023/04/30 00:46:33;;;;;;;;;;;7.40;99.90;;;;;;5115438;28;19924;-73
2023/04/30 00:49:03;;;;;;;;;;;7.50;99.90;;;;;;5114398;28;20367;-73
2023/04/30 00:51:30;;;;;;;;;;;7.40;99.90;;;;;;5114297;28;19924;-74
2023/04/30 00:53:56;;;;;;;;;;;7.60;99.90;;;;;;5114880;28;19976;-72
2023/04/30 00:56:22;;;;;;;;;;;7.50;99.90;;;;;;5115056;28;19928;-73
2023/04/30 00:58:49;;;;;;;;;;;7.50;99.90;;;;;;5113566;28;19939;-74
2023/04/30 01:01:15;;;;;;;;;;;7.50;99.90;;;;;;5096339;28;19950;-73
2023/04/30 01:03:41;;;;;;;;;;;7.70;99.90;;;;;;5096630;28;20359;-74
2023/04/30 01:06:06;;;;;;;;;;;7.60;99.90;;;;;;5095384;28;19938;-74
2023/04/30 01:08:32;;;;;;;;;;;7.60;99.90;;;;;;5114605;28;19982;-74
2023/04/30 01:11:07;;;;;;;;;;;7.70;99.90;;;;;;5095378;28;20417;-74
2023/04/30 01:13:43;;;;;;;;;;;7.60;99.90;;;;;;5096009;28;19967;-74
2023/04/30 01:16:22;;;;;;;;;;;7.60;99.90;;;;;;5114262;28;19968;-73
2023/04/30 01:18:50;;;;;;;;;;;7.70;99.90;;;;;;5113595;28;20010;-73
2023/04/30 01:21:18;;;;;;;;;;;7.70;99.90;;;;;;5114594;28;19935;-74
2023/04/30 01:24:02;;;;;;;;;;;7.80;99.90;;;;;;5096180;28;19947;-74
2023/04/30 01:26:27;;;;;;;;;;;7.80;99.90;;;;;;5113833;28;19924;-74
2023/04/30 01:28:53;;;;;;;;;;;7.80;99.90;;;;;;5114236;28;19924;-74
2023/04/30 01:31:19;;;;;;;;;;;7.80;99.90;;;;;;5114260;28;20317;-73
2023/04/30 01:33:45;;;;;;;;;;;8.20;99.90;;;;;;5095302;28;19920;-74
2023/04/30 01:36:14;;;;;;;;;;;7.90;99.90;;;;;;5114053;28;19928;-74
2023/04/30 01:38:56;;;;;;;;;;;8.00;99.90;;;;;;5114309;28;19969;-74
2023/04/30 01:41:31;;;;;;;;;;;7.90;99.90;;;;;;5094707;28;19951;-74
2023/04/30 01:44:03;;;;;;;;;;;8.00;99.90;;;;;;5095821;28;19946;-74
2023/04/30 01:46:29;;;;;;;;;;;8.00;99.90;;;;;;5094828;28;20448;-74
2023/04/30 01:48:55;;;;;;;;;;;8.20;99.90;;;;;;5113813;28;19923;-73
2023/04/30 01:51:35;;;;;;;;;;;8.10;99.90;;;;;;5095281;28;19924;-73
2023/04/30 01:54:04;;;;;;;;;;;8.10;99.90;;;;;;5113354;28;19970;-73
2023/04/30 01:56:40;;;;;;;;;;;8.00;99.90;;;;;;5113600;28;20014;-74
2023/04/30 01:59:07;;;;;;;;;;;8.00;99.90;;;;;;5113507;28;19932;-74
2023/04/30 02:01:32;;;;;;;;;;;8.10;99.90;;;;;;5112908;28;19993;-73
2023/04/30 02:03:58;;;;;;;;;;;8.00;99.90;;;;;;5113486;28;20321;-74
2023/04/30 02:06:28;;;;;;;;;;;8.00;99.90;;;;;;5095047;28;19980;-74
2023/04/30 02:09:05;;;;;;;;;;;8.10;99.90;;;;;;5093288;28;19924;-73
2023/04/30 02:11:31;;;;;;;;;;;8.10;99.90;;;;;;5113735;28;19959;-73
2023/04/30 02:13:56;;;;;;;;;;;8.10;99.90;;;;;;5113616;28;19966;-73
2023/04/30 02:16:22;;;;;;;;;;;8.30;99.90;;;;;;5112984;28;19924;-73
2023/04/30 02:18:48;;;;;;;;;;;8.10;99.90;;;;;;5095154;28;19964;-73
2023/04/30 02:21:13;;;;;;;;;;;8.10;99.90;;;;;;5094458;28;19970;-73
2023/04/30 02:23:39;;;;;;;;;;;8.10;99.90;;;;;;5095591;28;19963;-73
2023/04/30 02:26:05;;;;;;;;;;;8.10;99.90;;;;;;5094345;28;20283;-73
2023/04/30 02:28:30;;;;;;;;;;;8.10;99.90;;;;;;5094541;28;19924;-73
2023/04/30 02:30:56;;;;;;;;;;;8.20;99.90;;;;;;5094708;28;19931;-73
2023/04/30 02:33:21;;;;;;;;;;;8.20;99.90;;;;;;5113081;28;19923;-73
2023/04/30 02:35:47;;;;;;;;;;;8.20;99.90;;;;;;5094356;28;19934;-73
2023/04/30 02:38:12;;;;;;;;;;;8.10;99.90;;;;;;5113274;28;20351;-73
2023/04/30 02:40:39;;;;;;;;;;;8.20;99.90;;;;;;5113466;28;19923;-73
2023/04/30 02:43:05;;;;;;;;;;;8.20;99.90;;;;;;5094170;28;19924;-73
2023/04/30 02:45:30;;;;;;;;;;;8.20;99.90;;;;;;5094089;28;19931;-72
2023/04/30 02:47:56;;;;;;;;;;;8.20;99.90;;;;;;5113017;28;19959;-73
2023/04/30 02:50:21;;;;;;;;;;;8.10;99.90;;;;;;5094360;28;20370;-73
2023/04/30 02:52:47;;;;;;;;;;;8.10;99.90;;;;;;5094563;28;19973;-73
2023/04/30 02:55:13;;;;;;;;;;;8.70;99.90;;;;;;5095017;28;19969;-72
2023/04/30 02:57:38;;;;;;;;;;;8.10;99.90;;;;;;5093680;28;19930;-73
2023/04/30 03:00:04;;;;;;;;;;;8.10;99.90;;;;;;5094596;28;19935;-73
2023/04/30 03:02:30;;;;;;;;;;;8.00;99.90;;;;;;5094827;28;19966;-73
2023/04/30 03:04:55;;;;;;;;;;;8.00;99.90;;;;;;5093829;28;19959;-73
2023/04/30 03:07:21;;;;;;;;;;;8.40;99.90;;;;;;5113272;28;19963;-73
2023/04/30 03:09:46;;;;;;;;;;;7.90;99.90;;;;;;5094871;28;20302;-73
2023/04/30 03:12:13;;;;;;;;;;;7.80;99.90;;;;;;5112026;28;19998;-73
2023/04/30 03:14:39;;;;;;;;;;;7.70;99.90;;;;;;5095758;28;19980;-73
2023/04/30 03:17:04;;;;;;;;;;;7.70;99.90;;;;;;5094534;28;20325;-73
2023/04/30 03:19:30;;;;;;;;;;;7.60;99.90;;;;;;5094093;28;19924;-73
2023/04/30 03:21:56;;;;;;;;;;;7.60;99.90;;;;;;5112469;28;19953;-73
2023/04/30 03:24:21;;;;;;;;;;;7.50;99.90;;;;;;5094790;28;19968;-73
2023/04/30 03:26:47;;;;;;;;;;;7.50;99.90;;;;;;5112471;28;19924;-73
2023/04/30 03:29:12;;;;;;;;;;;7.80;99.90;;;;;;5094166;28;19927;-73
2023/04/30 03:31:38;;;;;;;;;;;7.40;99.90;;;;;;5093619;28;19924;-73
2023/04/30 03:34:03;;;;;;;;;;;7.40;99.90;;;;;;5112711;28;19924;-73
2023/04/30 03:36:30;;;;;;;;;;;7.40;99.90;;;;;;5094685;28;19938;-73
2023/04/30 03:38:55;;;;;;;;;;;7.30;99.90;;;;;;5115588;28;19931;-73
2023/04/30 03:41:22;;;;;;;;;;;7.30;99.90;;;;;;5098291;28;20418;-73
2023/04/30 03:43:47;;;;;;;;;;;7.20;99.90;;;;;;5115834;28;19928;-73
2023/04/30 03:46:13;;;;;;;;;;;7.20;99.90;;;;;;5097654;28;19977;-72
2023/04/30 03:48:38;;;;;;;;;;;7.10;99.90;;;;;;5116380;28;19931;-73
2023/04/30 03:51:04;;;;;;;;;;;7.10;99.90;;;;;;5115691;28;20014;-73
2023/04/30 03:53:29;;;;;;;;;;;7.10;99.90;;;;;;5097051;28;19951;-73
2023/04/30 03:55:55;;;;;;;;;;;7.00;99.90;;;;;;5097770;28;19928;-73
2023/04/30 03:58:21;;;;;;;;;;;7.00;99.90;;;;;;5115720;28;19931;-73
2023/04/30 04:00:47;;;;;;;;;;;7.00;99.90;;;;;;5097120;28;19950;-73
2023/04/30 04:03:13;;;;;;;;;;;7.00;99.90;;;;;;5115121;28;20410;-73
2023/04/30 04:05:38;;;;;;;;;;;6.90;99.90;;;;;;5097859;28;19930;-73
2023/04/30 04:08:05;;;;;;;;;;;6.90;99.90;;;;;;5096912;28;19919;-73
2023/04/30 04:10:31;;;;;;;;;;;6.80;99.90;;;;;;5115949;28;19923;-73
2023/04/30 04:12:56;;;;;;;;;;;7.00;99.90;;;;;;5096239;28;20073;-73
2023/04/30 04:15:22;;;;;;;;;;;6.80;99.90;;;;;;5096752;28;19947;-73
2023/04/30 04:17:47;;;;;;;;;;;6.80;99.90;;;;;;5097633;28;20290;-73
2023/04/30 04:20:13;;;;;;;;;;;6.80;99.90;;;;;;5115571;28;20075;-73
2023/04/30 04:22:39;;;;;;;;;;;6.70;99.90;;;;;;5095901;28;19996;-73
2023/04/30 04:25:04;;;;;;;;;;;6.70;99.90;;;;;;5115434;28;19928;-73
2023/04/30 04:27:30;;;;;;;;;;;6.70;99.90;;;;;;5097079;28;20377;-73
2023/04/30 04:29:55;;;;;;;;;;;6.90;99.90;;;;;;5114616;28;19978;-73
2023/04/30 04:32:21;;;;;;;;;;;6.60;99.90;;;;;;5097412;28;19924;-73
2023/04/30 04:34:48;;;;;;;;;;;6.60;99.90;;;;;;5115526;28;19927;-73
2023/04/30 04:37:14;;;;;;;;;;;6.50;99.90;;;;;;5114444;28;19930;-73
2023/04/30 04:39:40;;;;;;;;;;;6.60;99.90;;;;;;5115130;28;20378;-73
2023/04/30 04:42:05;;;;;;;;;;;6.60;99.90;;;;;;5095761;28;19923;-73
2023/04/30 04:44:31;;;;;;;;;;;6.60;99.90;;;;;;5097088;28;19924;-73
2023/04/30 04:46:57;;;;;;;;;;;6.90;99.90;;;;;;5096571;28;19920;-72
2023/04/30 04:49:23;;;;;;;;;;;6.60;99.90;;;;;;5095119;28;20375;-73
2023/04/30 04:51:48;;;;;;;;;;;6.60;99.90;;;;;;5115343;28;19924;-73
2023/04/30 04:54:14;;;;;;;;;;;6.70;99.90;;;;;;5096680;28;20359;-73
2023/04/30 04:56:39;;;;;;;;;;;6.80;99.90;;;;;;5113828;28;19931;-73
2023/04/30 04:59:05;;;;;;;;;;;6.90;99.90;;;;;;5096149;28;19924;-73
2023/04/30 05:01:30;;;;;;;;;;;7.10;99.90;;;;;;5096408;28;19923;-73
2023/04/30 05:03:56;;;;;;;;;;;7.10;99.90;;;;;;5113535;28;20077;-73
2023/04/30 05:06:21;;;;;;;;;;;7.10;99.90;;;;;;5096874;28;19924;-73
2023/04/30 05:08:47;;;;;;;;;;;8.30;99.90;;;;;;5114353;28;20394;-73
2023/04/30 05:11:12;;;;;;;;;;;7.20;99.90;;;;;;5113805;28;20278;-74
2023/04/30 05:13:38;;;;;;;;;;;7.40;99.90;;;;;;5114562;28;19928;-73
2023/04/30 05:16:03;;;;;;;;;;;7.70;99.90;;;;;;5096054;28;19966;-73
2023/04/30 05:18:29;;;;;;;;;;;7.40;99.90;;;;;;5113310;28;20341;-73
2023/04/30 05:20:54;;;;;;;;;;;7.50;99.90;;;;;;5096212;28;19924;-73
2023/04/30 05:23:20;;;;;;;;;;;7.60;99.90;;;;;;5096186;28;19924;-73
2023/04/30 05:25:50;;;;;;;;;;;7.70;99.90;;;;;;5095181;28;20318;-73
2023/04/30 05:28:16;;;;;;;;;;;7.70;99.90;;;;;;5095673;28;20438;-73
2023/04/30 05:30:42;;;;;;;;;;;7.90;99.90;;;;;;5114253;28;20010;-73
2023/04/30 05:33:07;;;;;;;;;;;7.90;99.90;;;;;;5113100;28;19930;-73
2023/04/30 05:35:34;;;;;;;;;;;7.90;99.90;;;;;;5095682;28;20256;-73
2023/04/30 05:38:01;;;;;;;;;;;8.00;99.90;;;;;;5095997;28;19946;-73
2023/04/30 05:40:26;;;;;;;;;;;8.00;99.90;;;;;;5113343;28;19969;-73
2023/04/30 05:42:52;;;;;;;;;;;8.10;99.90;;;;;;5113569;28;20310;-73
2023/04/30 05:45:17;;;;;;;;;;;8.20;99.90;;;;;;5094714;28;20367;-73
2023/04/30 05:47:43;;;;;;;;;;;8.30;99.90;;;;;;5114060;28;19924;-73
2023/04/30 05:50:08;;;;;;;;;;;8.30;99.90;;;;;;5113773;28;20032;-73
2023/04/30 05:52:34;;;;;;;;;;;8.40;99.90;;;;;;5113265;28;20069;-73
2023/04/30 05:54:59;;;;;;;;;;;8.40;99.90;;;;;;5095181;28;19935;-72
2023/04/30 05:57:25;;;;;;;;;;;8.50;99.90;;;;;;5113399;28;19934;-72
2023/04/30 05:59:51;;;;;;;;;;;8.60;99.90;;;;;;5093290;28;20256;-73
2023/04/30 06:02:16;;;;;;;;;;;8.70;99.90;;;;;;5113934;28;19990;-73
2023/04/30 06:04:42;;;;;;;;;;;8.80;99.90;;;;;;5113793;28;20027;-73
2023/04/30 06:07:07;;;;;;;;;;;8.90;99.90;;;;;;5112586;28;19924;-73
2023/04/30 06:09:33;;;;;;;;;;;9.00;99.90;;;;;;5095365;28;19924;-73
2023/04/30 06:11:58;;;;;;;;;;;9.00;99.90;;;;;;5094947;28;19931;-73
2023/04/30 06:14:24;;;;;;;;;;;9.00;99.90;;;;;;5093864;28;19967;-73
2023/04/30 06:16:50;;;;;;;;;;;9.00;99.90;;;;;;5095130;28;19924;-73
2023/04/30 06:19:15;;;;;;;;;;;9.10;99.90;;;;;;5095270;28;19950;-73
2023/04/30 06:21:44;;;;;;;;;;;9.00;99.90;;;;;;5113024;28;19947;-73
2023/04/30 06:24:09;;;;;;;;;;;8.90;99.90;;;;;;5112609;28;20458;-72
2023/04/30 06:26:35;;;;;;;;;;;9.40;99.90;;;;;;5113275;28;20022;-73
2023/04/30 06:29:00;;;;;;;;;;;9.10;99.90;;;;;;5094279;28;20385;-73
2023/04/30 06:31:26;;;;;;;;;;;10.00;99.90;;;;;;5094868;28;19931;-72
2023/04/30 06:33:52;;;;;;;;;;;9.60;99.90;;;;;;5095173;28;19973;-72
2023/04/30 06:36:18;;;;;;;;;;;9.00;99.90;;;;;;5112079;28;19924;-72
2023/04/30 06:38:45;;;;;;;;;;;9.70;99.90;;;;;;5113328;28;19948;-73
2023/04/30 06:41:11;;;;;;;;;;;9.10;99.90;;;;;;5095144;28;20294;-72
2023/04/30 06:43:36;;;;;;;;;;;9.30;99.90;;;;;;5112587;28;19930;-73
2023/04/30 06:46:02;;;;;;;;;;;9.20;99.90;;;;;;5094522;28;19934;-73
2023/04/30 06:48:28;;;;;;;;;;;9.30;99.90;;;;;;5094862;28;19923;-72
2023/04/30 06:50:53;;;;;;;;;;;9.40;99.90;;;;;;5094085;28;19969;-73
2023/04/30 06:53:20;;;;;;;;;;;9.50;99.90;;;;;;5113410;28;19969;-73
2023/04/30 06:55:45;;;;;;;;;;;9.50;99.90;;;;;;5112423;28;20028;-73
2023/04/30 06:58:11;;;;;;;;;;;9.50;99.90;;;;;;5094603;28;19928;-73
2023/04/30 07:00:36;;;;;;;;;;;9.50;99.90;;;;;;5112588;28;19924;-73
2023/04/30 07:03:03;;;;;;;;;;;9.90;99.90;;;;;;5093848;28;19998;-73
2023/04/30 07:05:29;;;;;;;;;;;9.60;99.90;;;;;;5094261;28;19924;-73
2023/04/30 07:07:55;;;;;;;;;;;9.60;99.90;;;;;;5093718;28;20339;-73
2023/04/30 07:10:21;;;;;;;;;;;9.60;99.90;;;;;;5093380;28;19923;-73
2023/04/30 07:12:46;;;;;;;;;;;9.70;99.90;;;;;;5093814;28;20398;-73
2023/04/30 07:15:12;;;;;;;;;;;9.80;99.90;;;;;;5091517;28;20463;-73
2023/04/30 07:17:37;;;;;;;;;;;10.10;99.90;;;;;;5097039;28;20306;-74
2023/04/30 07:20:03;;;;;;;;;;;10.00;99.90;;;;;;5115790;28;19928;-72
2023/04/30 07:22:30;;;;;;;;;;;10.10;99.90;;;;;;5097465;28;19919;-73
2023/04/30 07:24:55;;;;;;;;;;;10.30;99.90;;;;;;5115371;28;20338;-73
2023/04/30 07:27:21;;;;;;;;;;;10.50;99.90;;;;;;5097766;28;19934;-71
2023/04/30 07:29:47;;;;;;;;;;;10.60;99.90;;;;;;5115698;28;20382;-71
2023/04/30 07:32:13;;;;;;;;;;;10.70;99.90;;;;;;5114851;28;19924;-72
2023/04/30 07:34:39;;;;;;;;;;;10.80;99.90;;;;;;5098022;28;20294;-71
2023/04/30 07:37:04;;;;;;;;;;;10.90;99.90;;;;;;5097199;28;19930;-75
2023/04/30 07:39:30;;;;;;;;;;;11.10;99.90;;;;;;5114787;28;19930;-76
2023/04/30 07:41:56;;;;;;;;;;;11.20;99.90;;;;;;5096618;28;19927;-72
2023/04/30 07:44:21;;;;;;;;;;;11.40;99.90;;;;;;5115788;28;20287;-74
2023/04/30 07:46:47;;;;;;;;;;;11.60;99.90;;;;;;5114959;28;19931;-73
2023/04/30 07:49:12;;;;;;;;;;;11.40;99.90;;;;;;5095653;28;19924;-74
2023/04/30 07:51:38;;;;;;;;;;;11.30;99.90;;;;;;5096548;28;19923;-71
2023/04/30 07:54:03;;;;;;;;;;;11.30;99.90;;;;;;5112755;28;19920;-71
2023/04/30 07:56:29;;;;;;;;;;;11.40;99.90;;;;;;5113985;28;19924;-71
2023/04/30 07:58:55;;;;;;;;;;;11.30;99.90;;;;;;5096604;28;19928;-72
2023/04/30 08:01:20;;;;;;;;;;;11.10;99.90;;;;;;5115979;28;19924;-71
2023/04/30 08:03:46;;;;;;;;;;;11.10;99.90;;;;;;5115612;28;20022;-72
2023/04/30 08:06:11;;;;;;;;;;;11.20;99.90;;;;;;5111606;28;19928;-72
2023/04/30 08:08:38;;;;;;;;;;;11.30;99.90;;;;;;5096938;28;19940;-71
2023/04/30 08:11:04;;;;;;;;;;;11.50;99.90;;;;;;5096346;28;19924;-72
2023/04/30 08:13:29;;;;;;;;;;;11.60;99.90;;;;;;5114107;28;19924;-71
2023/04/30 08:15:55;;;;;;;;;;;11.70;99.90;;;;;;5096488;28;19924;-72
2023/04/30 08:18:21;;;;;;;;;;;11.80;99.90;;;;;;5095942;28;19931;-72
2023/04/30 08:20:47;;;;;;;;;;;11.90;99.90;;;;;;5096354;28;19935;-71
2023/04/30 08:23:12;;;;;;;;;;;12.00;99.90;;;;;;5095539;28;19957;-70
2023/04/30 08:25:38;;;;;;;;;;;12.10;99.90;;;;;;5115149;28;20318;-70
2023/04/30 08:28:03;;;;;;;;;;;12.30;99.90;;;;;;5113489;28;19936;-70
2023/04/30 08:30:29;;;;;;;;;;;12.50;99.90;;;;;;5096353;28;19976;-69
2023/04/30 08:32:54;;;;;;;;;;;12.70;99.90;;;;;;5096276;28;20287;-70
2023/04/30 08:35:20;;;;;;;;;;;12.80;99.90;;;;;;5114241;28;20347;-70
2023/04/30 08:37:45;;;;;;;;;;;13.00;99.90;;;;;;5114541;28;19927;-69
2023/04/30 08:40:12;;;;;;;;;;;13.10;99.90;;;;;;5113727;28;19924;-70
2023/04/30 08:42:49;;;;;;;;;;;13.00;99.90;;;;;;5095259;28;19930;-70
2023/04/30 08:45:15;;;;;;;;;;;13.30;99.90;;;;;;5114079;28;20279;-70
2023/04/30 08:47:40;;;;;;;;;;;13.30;99.90;;;;;;5113712;28;19924;-71
2023/04/30 08:50:06;;;;;;;;;;;13.20;99.90;;;;;;5094823;28;19950;-70
2023/04/30 08:52:34;;;;;;;;;;;13.30;99.90;;;;;;5096212;28;19924;-70
2023/04/30 08:55:00;;;;;;;;;;;13.40;99.90;;;;;;5095249;28;20385;-71
2023/04/30 08:57:25;;;;;;;;;;;13.70;99.90;;;;;;5113050;28;20014;-72
2023/04/30 08:59:52;;;;;;;;;;;13.50;99.90;;;;;;5096136;28;19930;-70
2023/04/30 09:02:17;;;;;;;;;;;14.00;99.90;;;;;;5094976;28;19961;-69
2023/04/30 09:04:43;;;;;;;;;;;14.60;99.90;;;;;;5095955;28;20011;-69
2023/04/30 09:07:10;;;;;;;;;;;15.00;99.90;;;;;;5113152;28;19923;-70
2023/04/30 09:09:39;;;;;;;;;;;15.40;99.90;;;;;;5094938;28;19951;-70
2023/04/30 09:12:12;;;;;;;;;;;15.90;99.90;;;;;;5113751;28;19923;-69
2023/04/30 09:14:39;;;;;;;;;;;15.90;99.70;;;;;;5114192;28;19924;-69
2023/04/30 09:17:05;;;;;;;;;;;16.00;99.90;;;;;;5093811;28;19934;-69
2023/04/30 09:19:31;;;;;;;;;;;16.00;99.00;;;;;;5095624;28;19923;-69
2023/04/30 09:21:56;;;;;;;;;;;15.90;98.50;;;;;;5095259;28;19989;-70
2023/04/30 09:24:22;;;;;;;;;;;15.90;99.90;;;;;;5094678;28;19924;-70
2023/04/30 09:26:49;;;;;;;;;;;16.10;98.50;;;;;;5113408;28;20416;-70
2023/04/30 09:29:15;;;;;;;;;;;16.20;98.80;;;;;;5113414;28;19931;-69
2023/04/30 09:31:46;;;;;;;;;;;16.50;99.90;;;;;;5094766;28;19930;-71
2023/04/30 09:34:12;;;;;;;;;;;17.00;97.70;;;;;;5113260;28;19978;-72
2023/04/30 09:36:53;;;;;;;;;;;17.00;98.10;;;;;;5095267;28;19959;-72
2023/04/30 09:39:19;;;;;;;;;;;17.30;97.50;;;;;;5112773;28;20432;-72
2023/04/30 09:41:45;;;;;;;;;;;18.00;95.50;;;;;;5113449;28;19928;-74
2023/04/30 09:44:26;;;;;;;;;;;18.30;93.80;;;;;;5113031;28;19935;-73
2023/04/30 09:46:51;;;;;;;;;;;18.50;94.20;;;;;;5094195;28;19939;-73
2023/04/30 09:49:18;;;;;;;;;;;18.60;93.40;;;;;;5113221;28;19924;-73
2023/04/30 09:51:56;;;;;;;;;;;18.70;94.30;;;;;;5112720;28;19923;-73
2023/04/30 09:54:26;;;;;;;;;;;19.10;93.20;;;;;;5095189;28;19981;-74
2023/04/30 09:57:00;;;;;;;;;;;19.50;92.20;;;;;;5094657;28;19924;-74
2023/04/30 09:59:36;;;;;;;;;;;19.50;91.70;;;;;;5094332;28;20002;-74
2023/04/30 10:02:03;;;;;;;;;;;19.70;92.50;;;;;;5112835;28;20343;-76
2023/04/30 10:04:35;;;;;;;;;;;19.70;90.80;;;;;;5113231;28;19924;-74
2023/04/30 10:07:03;;;;;;;;;;;20.20;91.30;;;;;;5094220;28;19959;-74
2023/04/30 10:09:35;;;;;;;;;;;20.80;91.10;;;;;;5094601;28;19923;-72
2023/04/30 10:12:02;;;;;;;;;;;21.00;90.60;;;;;;5093575;28;20358;-73
2023/04/30 10:14:29;;;;;;;;;;;20.70;90.30;;;;;;5111620;28;20713;-74
2023/04/30 10:16:57;;;;;;;;;;;20.70;90.60;;;;;;5094274;28;20379;-72
2023/04/30 10:19:24;;;;;;;;;;;20.50;90.10;;;;;;5113041;28;19930;-72
2023/04/30 10:21:50;;;;;;;;;;;20.80;90.20;;;;;;5111861;28;20069;-73
2023/04/30 10:24:18;;;;;;;;;;;20.80;88.80;;;;;;5094735;28;19984;-72
2023/04/30 10:26:44;;;;;;;;;;;20.90;89.30;;;;;;5093677;28;19927;-73
2023/04/30 10:29:11;;;;;;;;;;;20.70;89.30;;;;;;5094105;28;19981;-73
2023/04/30 10:31:38;;;;;;;;;;;20.40;91.10;;;;;;5094154;28;20279;-74
2023/04/30 10:34:22;;;;;;;;;;;20.70;90.30;;;;;;5111711;28;20293;-72
2023/04/30 10:36:49;;;;;;;;;;;20.90;90.00;;;;;;5112903;28;19935;-75
2023/04/30 10:39:20;;;;;;;;;;;21.00;91.50;;;;;;5094458;28;20295;-75
2023/04/30 10:41:51;;;;;;;;;;;20.90;89.60;;;;;;5111827;28;19946;-75
2023/04/30 10:44:20;;;;;;;;;;;20.70;91.20;;;;;;5094009;28;19923;-73
2023/04/30 10:46:46;;;;;;;;;;;20.80;90.60;;;;;;5115166;28;19949;-72
2023/04/30 10:49:13;;;;;;;;;;;21.20;89.60;;;;;;5115605;28;19923;-73
2023/04/30 10:51:50;;;;;;;;;;;21.20;90.00;;;;;;5098092;28;19924;-74
2023/04/30 10:54:20;;;;;;;;;;;21.30;90.40;;;;;;5097138;28;19923;-73
2023/04/30 10:56:46;;;;;;;;;;;21.10;90.60;;;;;;5097113;28;19927;-74
2023/04/30 10:59:12;;;;;;;;;;;20.60;91.40;;;;;;5115868;28;19924;-75
2023/04/30 11:01:53;;;;;;;;;;;20.90;90.80;;;;;;5098062;28;19924;-73
2023/04/30 11:04:19;;;;;;;;;;;21.20;89.90;;;;;;5116309;28;19985;-72
2023/04/30 11:06:49;;;;;;;;;;;21.20;91.20;;;;;;5098291;28;20036;-72
2023/04/30 11:09:15;;;;;;;;;;;21.50;90.00;;;;;;5115311;28;19924;-73
2023/04/30 11:11:43;;;;;;;;;;;21.20;88.30;;;;;;5097950;28;19924;-73
2023/04/30 11:14:10;;;;;;;;;;;21.10;89.30;;;;;;5115761;28;19923;-73
2023/04/30 11:16:35;;;;;;;;;;;21.30;89.60;;;;;;5096986;28;20310;-73
2023/04/30 11:19:05;;;;;;;;;;;21.40;90.50;;;;;;5096591;28;19931;-71
2023/04/30 11:21:32;;;;;;;;;;;21.40;89.70;;;;;;5097954;28;19924;-72
2023/04/30 11:24:02;;;;;;;;;;;21.50;89.90;;;;;;5096982;28;19946;-73
2023/04/30 11:26:27;;;;;;;;;;;21.50;91.20;;;;;;5097991;28;20340;-73
2023/04/30 11:28:54;;;;;;;;;;;21.80;89.10;;;;;;5114856;28;19923;-72
2023/04/30 11:31:19;;;;;;;;;;;21.70;91.20;;;;;;5115380;28;19923;-72
2023/04/30 11:33:45;;;;;;;;;;;21.60;90.50;;;;;;5116014;28;19934;-73
2023/04/30 11:36:12;;;;;;;;;;;21.30;90.60;;;;;;5097250;28;19935;-73
2023/04/30 11:38:38;;;;;;;;;;;21.30;90.50;;;;;;5114607;28;20431;-74
2023/04/30 11:41:04;;;;;;;;;;;21.30;90.30;;;;;;5115867;28;19923;-75
2023/04/30 11:43:30;;;;;;;;;;;21.50;90.80;;;;;;5097144;28;20213;-73
2023/04/30 11:45:59;;;;;;;;;;;21.30;90.00;;;;;;5114323;28;19928;-73
2023/04/30 11:48:29;;;;;;;;;;;21.50;89.90;;;;;;5115371;28;19931;-72
2023/04/30 11:50:54;;;;;;;;;;;21.90;88.70;;;;;;5096342;28;20010;-72
2023/04/30 11:53:25;;;;;;;;;;;21.80;89.70;;;;;;5097600;28;20010;-72
2023/04/30 11:55:52;;;;;;;;;;;22.20;91.60;;;;;;5096267;28;19923;-73
2023/04/30 11:58:18;;;;;;;;;;;22.90;89.80;;;;;;5094708;28;19931;-72
2023/04/30 12:00:43;;;;;;;;;;;23.10;91.00;;;;;;5097257;28;19923;-72
2023/04/30 12:03:09;;;;;;;;;;;23.20;87.40;;;;;;5096390;28;19923;-72
2023/04/30 12:05:37;;;;;;;;;;;22.90;86.50;;;;;;5093497;28;19962;-72
2023/04/30 12:08:05;;;;;;;;;;;22.40;85.10;;;;;;5115108;28;19923;-72
2023/04/30 12:10:31;;;;;;;;;;;22.30;87.50;;;;;;5096647;28;19930;-72
2023/04/30 12:12:57;;;;;;;;;;;22.10;87.30;;;;;;5095463;28;19932;-71
2023/04/30 12:15:27;;;;;;;;;;;22.50;91.00;;;;;;5096985;28;20374;-72
2023/04/30 12:17:57;;;;;;;;;;;22.90;87.20;;;;;;5097065;28;19930;-72
2023/04/30 12:20:23;;;;;;;;;;;22.80;86.60;;;;;;5094479;28;19924;-73
2023/04/30 12:22:49;;;;;;;;;;;22.00;87.70;;;;;;5115340;28;19969;-72
2023/04/30 12:25:18;;;;;;;;;;;21.60;86.40;;;;;;5096317;28;19927;-73
2023/04/30 12:27:45;;;;;;;;;;;21.10;91.10;;;;;;5095605;28;19998;-73
2023/04/30 12:30:10;;;;;;;;;;;20.80;90.80;;;;;;5096456;28;20734;-74
2023/04/30 12:32:39;;;;;;;;;;;20.40;91.90;;;;;;5097229;28;19978;-72
2023/04/30 12:35:05;;;;;;;;;;;20.40;91.60;;;;;;5113769;28;20356;-72
2023/04/30 12:37:31;;;;;;;;;;;20.00;91.70;;;;;;5115101;28;19970;-72
2023/04/30 12:39:56;;;;;;;;;;;19.70;91.50;;;;;;5096739;28;19934;-72
2023/04/30 12:42:22;;;;;;;;;;;19.70;90.90;;;;;;5095862;28;20474;-72
2023/04/30 12:44:48;;;;;;;;;;;20.10;92.80;;;;;;5097025;28;19935;-72
2023/04/30 12:47:15;;;;;;;;;;;20.50;92.30;;;;;;5095472;28;19924;-73
2023/04/30 12:49:40;;;;;;;;;;;21.00;92.10;;;;;;5096402;28;19924;-73
2023/04/30 12:52:10;;;;;;;;;;;20.80;90.80;;;;;;5096204;28;19927;-73
2023/04/30 12:54:36;;;;;;;;;;;20.30;90.90;;;;;;5095736;28;19930;-73
2023/04/30 12:57:03;;;;;;;;;;;19.90;92.30;;;;;;5096025;28;20432;-73
2023/04/30 12:59:30;;;;;;;;;;;19.80;92.80;;;;;;5114702;28;19931;-73
2023/04/30 13:02:05;;;;;;;;;;;19.70;93.40;;;;;;5113325;28;20344;-73
2023/04/30 13:04:30;;;;;;;;;;;19.60;93.20;;;;;;5114484;28;20238;-73
2023/04/30 13:06:56;;;;;;;;;;;19.40;94.40;;;;;;5095933;28;20402;-73
2023/04/30 13:09:21;;;;;;;;;;;19.40;94.00;;;;;;5094984;28;19987;-73
2023/04/30 13:11:49;;;;;;;;;;;19.90;94.70;;;;;;5114813;28;20022;-73
2023/04/30 13:14:16;;;;;;;;;;;20.20;93.70;;;;;;5096341;28;19920;-73
2023/04/30 13:16:42;;;;;;;;;;;20.50;92.90;;;;;;5113764;28;20306;-73
2023/04/30 13:19:08;;;;;;;;;;;20.40;93.00;;;;;;5114115;28;19924;-73
2023/04/30 13:21:34;;;;;;;;;;;20.20;92.30;;;;;;5096009;28;20401;-73
2023/04/30 13:23:59;;;;;;;;;;;20.30;92.60;;;;;;5113055;28;19924;-73
2023/04/30 13:26:25;;;;;;;;;;;20.40;92.00;;;;;;5095971;28;19919;-73
2023/04/30 13:28:50;;;;;;;;;;;20.50;92.40;;;;;;5095801;28;19923;-73
2023/04/30 13:31:16;;;;;;;;;;;20.70;92.00;;;;;;5113637;28;20287;-73
2023/04/30 13:33:42;;;;;;;;;;;20.60;91.90;;;;;;5095864;28;19924;-73
2023/04/30 13:36:08;;;;;;;;;;;20.90;90.70;;;;;;5113787;28;19931;-73
2023/04/30 13:38:34;;;;;;;;;;;20.30;91.60;;;;;;5095083;28;19924;-73
2023/04/30 13:40:59;;;;;;;;;;;20.40;92.20;;;;;;5113681;28;19931;-73
2023/04/30 13:43:24;;;;;;;;;;;20.60;92.10;;;;;;5095269;28;19930;-73
2023/04/30 13:45:50;;;;;;;;;;;20.30;91.50;;;;;;5095898;28;19924;-72
2023/04/30 13:48:16;;;;;;;;;;;19.90;92.20;;;;;;5113796;28;20398;-72
2023/04/30 13:50:41;;;;;;;;;;;19.60;92.40;;;;;;5113108;28;19924;-72
2023/04/30 13:53:07;;;;;;;;;;;19.30;92.40;;;;;;5095138;28;19924;-72
2023/04/30 13:55:32;;;;;;;;;;;19.50;92.40;;;;;;5113863;28;19978;-72
2023/04/30 13:57:58;;;;;;;;;;;19.50;92.30;;;;;;5112186;28;19923;-73
2023/04/30 14:00:24;;;;;;;;;;;19.50;92.60;;;;;;5095612;28;19924;-72
2023/04/30 14:02:50;;;;;;;;;;;19.20;93.70;;;;;;5095169;28;19924;-72
2023/04/30 14:05:15;;;;;;;;;;;19.00;92.90;;;;;;5095051;28;19923;-72
2023/04/30 14:07:42;;;;;;;;;;;18.80;94.70;;;;;;5112969;28;19930;-72
2023/04/30 14:10:07;;;;;;;;;;;18.80;93.30;;;;;;5094837;28;19924;-73
2023/04/30 14:12:33;;;;;;;;;;;18.60;94.30;;;;;;5113011;28;20287;-73
2023/04/30 14:14:58;;;;;;;;;;;18.70;93.90;;;;;;5113041;28;19924;-72
2023/04/30 14:17:25;;;;;;;;;;;18.60;93.30;;;;;;5113216;28;19931;-73
2023/04/30 14:19:51;;;;;;;;;;;18.50;93.70;;;;;;5112310;28;19949;-72